Huvudsida
METAR-TAF:

METAR-TAF

Flygplatser :

Turin-Caselles flygplats

Turin, Italien

latitud: 45-13N, longitud: 007-39E, höjd: 301 m

Aktuellt väderrapport

Denna rapport gjordes för 30 minuter sedan, klockan 23:20 UTC
Vind 5 kt från syd/sydväst, varierande mellan nordost och sydväst
Temperatur 6°C
Fuktighet 100%
Tryck 1005 hPa
Sikt: 4000 m
Mulet på en höjd av 2000 ft
regn, fuktdis

METAR: LIMF 152320Z 20005KT 050V220 4000 RA BR OVC020 06/06 Q1005

Tid: 00:50 (23:50 UTC)

Väderprognos

Denna rapport gjordes för 50 minuter sedan, klockan 23:00 UTC
Prognos gäller från 16 kl. 00 UTC till 16 kl. 24 UTC
Vind 5 kt varierande vindriktning
Sikt: 7000 m
Spridda moln på en höjd av 2500 ft
Brutna moln på en höjd av 5000 ft
Temporärt
från 16 kl. 00 UTC till 16 kl. 07 UTC
Sikt: 4000 m
Brutna moln på en höjd av 1200 ft
Brutna moln på en höjd av 4000 ft
regn

TAF: LIMF 152300Z 1600/1624 VRB05KT 7000 SCT025 BKN050 TEMPO 1600/1607 4000 RA BKN012 BKN040

Aktuella väderrapporter och prognoser från 4000 flygplatser (METAR- och TAF-rapporter).

De tillgängliga stationerna syns som gula och röda prickar på kartan.

För musen över prickarna för att se namnen på stationerna.

Klicka sedan för att få väderrapporter och prognoser.

För att ändra kartan: Klicka på de gröna knapparna med ett svart kors på för att zooma in; den gröna knappen med ett streck på för att zooma ut; eller på de gröna pilarna för angränsande kartor.


METAR-TAF: